createdAt,value
2018-04-19T00:03:57.610Z,6.40
2018-04-19T00:08:58.599Z,8.60
2018-04-19T00:14:00.341Z,7.97
2018-04-19T00:19:01.355Z,6.60
2018-04-19T00:24:02.350Z,7.20
2018-04-19T00:29:03.365Z,7.20
2018-04-19T00:34:04.375Z,12.17
2018-04-19T00:39:05.389Z,11.70
2018-04-19T00:44:06.384Z,10.47
2018-04-19T00:49:07.413Z,13.20
2018-04-19T00:54:08.421Z,9.77
2018-04-19T00:59:09.419Z,13.27
2018-04-19T01:04:10.434Z,9.37
2018-04-19T01:09:11.442Z,11.50
2018-04-19T01:14:12.443Z,10.77
2018-04-19T01:19:13.457Z,12.73
2018-04-19T01:24:14.454Z,10.23
2018-04-19T01:29:15.460Z,10.30
2018-04-19T01:34:16.472Z,9.83
2018-04-19T01:39:17.470Z,13.53
2018-04-19T01:44:19.210Z,11.40
2018-04-19T01:49:20.214Z,11.03
2018-04-19T01:54:21.216Z,12.23
2018-04-19T01:59:22.234Z,14.27
2018-04-19T02:04:23.218Z,12.67
2018-04-19T02:09:24.222Z,13.37
2018-04-19T02:14:25.996Z,13.90
2018-04-19T02:19:27.758Z,12.10
2018-04-19T02:24:28.774Z,11.70
2018-04-19T02:29:29.782Z,10.30
2018-04-19T02:34:31.746Z,14.27
2018-04-19T02:39:32.779Z,11.53
2018-04-19T02:44:33.812Z,19.20
2018-04-19T02:49:34.806Z,14.37
2018-04-19T02:54:35.810Z,12.10
2018-04-19T02:59:37.545Z,12.90
2018-04-19T03:04:38.550Z,13.83
2018-04-19T03:09:39.548Z,12.27
2018-04-19T03:14:40.551Z,18.33
2018-04-19T03:19:42.321Z,14.50
2018-04-19T03:24:44.107Z,12.60
2018-04-19T03:29:45.044Z,16.33
2018-04-19T03:34:46.063Z,12.57
2018-04-19T03:39:47.053Z,14.47
2018-04-19T03:44:48.037Z,12.73
2018-04-19T03:49:49.774Z,14.23
2018-04-19T03:54:50.776Z,17.70
2018-04-19T03:59:51.766Z,12.73
2018-04-19T04:04:52.778Z,11.43
2018-04-19T04:09:54.519Z,15.17
2018-04-19T04:14:55.531Z,14.40
2018-04-19T04:20:08.921Z,17.53
2018-04-19T04:25:09.934Z,14.70
2018-04-19T04:30:12.691Z,17.17
2018-04-19T04:35:13.700Z,16.57
2018-04-19T04:40:14.680Z,15.13
2018-04-19T04:45:15.694Z,13.50
2018-04-19T04:50:16.739Z,15.40
2018-04-19T04:55:18.641Z,13.87
2018-04-19T05:00:19.650Z,16.70
2018-04-19T05:05:20.639Z,19.33
2018-04-19T05:10:21.690Z,13.57
2018-04-19T05:15:23.441Z,22.03
2018-04-19T05:20:24.476Z,15.77
2018-04-19T05:25:25.431Z,14.43
2018-04-19T05:30:26.455Z,16.00
2018-04-19T05:35:28.199Z,14.93
2018-04-19T05:40:29.226Z,13.57
2018-04-19T05:45:30.244Z,12.70
2018-04-19T05:50:31.270Z,17.83
2018-04-19T05:55:32.273Z,11.30
2018-04-19T06:00:33.329Z,12.00
2018-04-19T06:05:34.331Z,13.07
2018-04-19T06:10:35.333Z,10.90
2018-04-19T06:15:36.333Z,12.00
2018-04-19T06:20:37.334Z,10.30
2018-04-19T06:25:39.095Z,13.37
2018-04-19T06:30:40.108Z,13.57
2018-04-19T06:35:41.105Z,13.37
2018-04-19T06:40:42.135Z,13.60
2018-04-19T06:45:43.146Z,11.73
2018-04-19T06:50:44.883Z,12.13
2018-04-19T06:55:45.875Z,12.17
2018-04-19T07:00:47.610Z,11.63
2018-04-19T07:05:48.593Z,14.27
2018-04-19T07:10:50.358Z,12.03
2018-04-19T07:15:52.173Z,10.17
2018-04-19T07:20:53.168Z,11.17
2018-04-19T07:25:54.220Z,9.57
2018-04-19T07:30:55.261Z,10.47
2018-04-19T07:35:56.250Z,11.10
2018-04-19T07:40:57.253Z,10.60
2018-04-19T07:45:59.006Z,10.07
2018-04-19T07:51:00.048Z,11.33
2018-04-19T07:56:01.055Z,9.43
2018-04-19T08:01:02.061Z,11.10
2018-04-19T08:06:03.073Z,9.73
2018-04-19T08:11:04.074Z,9.83
2018-04-19T08:16:05.081Z,12.97
2018-04-19T08:21:06.814Z,10.10
2018-04-19T08:26:07.831Z,13.20
2018-04-19T08:31:08.857Z,12.60
2018-04-19T08:36:10.609Z,11.03
2018-04-19T08:41:11.650Z,11.47
2018-04-19T08:46:12.647Z,10.90
2018-04-19T08:51:14.387Z,10.83
2018-04-19T08:56:15.381Z,11.33
2018-04-19T09:01:17.133Z,9.20
2018-04-19T09:06:18.177Z,9.23
2018-04-19T09:11:19.166Z,9.70
2018-04-19T09:16:20.158Z,10.30
2018-04-19T09:21:21.158Z,13.57
2018-04-19T09:26:22.195Z,11.23
2018-04-19T09:31:23.214Z,9.33
2018-04-19T09:36:24.959Z,9.30
2018-04-19T09:41:25.941Z,13.80
2018-04-19T09:46:27.675Z,8.43
2018-04-19T09:51:28.660Z,12.07
2018-04-19T09:56:29.634Z,10.80
2018-04-19T10:01:31.361Z,11.90
2018-04-19T10:06:32.334Z,11.13
2018-04-19T10:11:33.322Z,10.20
2018-04-19T10:16:35.054Z,7.93
2018-04-19T10:21:36.226Z,8.70
2018-04-19T10:26:37.227Z,12.30
2018-04-19T10:31:38.214Z,10.10
2018-04-19T10:36:39.215Z,12.57
2018-04-19T10:41:40.226Z,9.93
2018-04-19T10:46:41.298Z,9.47
2018-04-19T10:51:42.294Z,9.40
2018-04-19T10:56:44.026Z,9.43
2018-04-19T11:01:45.010Z,9.63
2018-04-19T11:06:46.019Z,8.87
2018-04-19T11:11:47.005Z,12.20
2018-04-19T11:16:48.023Z,9.57
2018-04-19T11:21:49.019Z,13.73
2018-04-19T11:26:50.042Z,8.43
2018-04-19T11:31:51.038Z,9.97
2018-04-19T11:36:52.029Z,9.83
2018-04-19T11:41:53.754Z,8.67
2018-04-19T11:46:54.737Z,5.13
2018-04-19T11:51:55.729Z,4.87
2018-04-19T11:56:57.466Z,4.27
2018-04-19T12:01:58.460Z,5.00
2018-04-19T12:07:00.178Z,5.97
2018-04-19T12:12:01.163Z,5.30
2018-04-19T12:17:02.156Z,4.90
2018-04-19T12:22:03.177Z,4.30
2018-04-19T12:27:04.183Z,5.37
2018-04-19T12:32:05.174Z,3.73
2018-04-19T12:37:06.166Z,4.07
2018-04-19T12:42:07.160Z,4.80
2018-04-19T12:47:08.156Z,5.10
2018-04-19T12:52:09.149Z,4.47
2018-04-19T12:57:10.883Z,7.80
2018-04-19T13:02:11.885Z,4.00
2018-04-19T13:07:13.626Z,4.00
2018-04-19T13:12:14.626Z,4.53
2018-04-19T13:17:15.619Z,2.87
2018-04-19T13:22:16.698Z,4.37
2018-04-19T13:27:17.674Z,5.07
2018-04-19T13:32:19.418Z,4.37
2018-04-19T13:37:20.422Z,4.33
2018-04-19T13:42:22.150Z,3.33
2018-04-19T13:47:23.138Z,5.40
2018-04-19T13:52:24.117Z,3.33
2018-04-19T13:57:25.842Z,5.30
2018-04-19T14:02:26.825Z,3.70
2018-04-19T14:07:29.357Z,3.00
2018-04-19T14:12:30.347Z,3.50
2018-04-19T14:17:31.338Z,3.30
2018-04-19T14:22:32.323Z,2.93
2018-04-19T14:27:33.318Z,2.10
2018-04-19T14:32:34.324Z,2.20
2018-04-19T14:37:35.309Z,2.77
2018-04-19T14:42:36.358Z,3.80
2018-04-19T14:47:37.354Z,2.80
2018-04-19T14:52:38.343Z,2.17
2018-04-19T14:57:39.334Z,2.40
2018-04-19T15:02:41.042Z,3.17
2018-04-19T15:07:42.054Z,3.43
2018-04-19T15:12:43.795Z,2.40
2018-04-19T15:17:45.142Z,2.10
2018-04-19T15:22:46.157Z,4.53
2018-04-19T15:27:47.138Z,2.50
2018-04-19T15:32:48.126Z,3.87
2018-04-19T15:37:49.111Z,3.43
2018-04-19T15:42:50.852Z,2.53
2018-04-19T15:47:51.897Z,2.10
2018-04-19T15:52:52.888Z,4.60
2018-04-19T15:57:53.890Z,2.33
2018-04-19T16:02:54.875Z,2.20
2018-04-19T16:07:55.871Z,2.27
2018-04-19T16:12:57.641Z,2.27
2018-04-19T16:17:58.633Z,1.93
2018-04-19T16:22:59.630Z,2.30
2018-04-19T16:28:00.640Z,3.80
2018-04-19T16:33:01.642Z,2.03
2018-04-19T16:38:02.653Z,1.80
2018-04-19T16:43:03.636Z,1.50
2018-04-19T16:48:04.661Z,1.73
2018-04-19T16:53:06.442Z,2.30
2018-04-19T16:58:07.406Z,2.20
2018-04-19T17:03:08.395Z,3.87
2018-04-19T17:08:09.386Z,1.87
2018-04-19T17:13:10.370Z,2.07
2018-04-19T17:18:12.093Z,2.90
2018-04-19T17:23:13.103Z,2.87
2018-04-19T17:28:14.107Z,1.80
2018-04-19T17:33:15.099Z,3.67
2018-04-19T17:38:16.091Z,2.53
2018-04-19T17:43:17.838Z,2.47
2018-04-19T17:48:18.952Z,2.50
2018-04-19T17:53:20.006Z,4.07
2018-04-19T17:58:21.002Z,3.57
2018-04-19T18:03:21.998Z,1.90
2018-04-19T18:08:23.729Z,3.70
2018-04-19T18:13:24.714Z,2.57
2018-04-19T18:18:26.441Z,2.00
2018-04-19T18:23:27.449Z,2.47
2018-04-19T18:28:29.188Z,6.27
2018-04-19T18:33:30.190Z,3.27
2018-04-19T18:38:31.917Z,3.10
2018-04-19T18:43:32.894Z,3.13
2018-04-19T18:48:33.900Z,4.20
2018-04-19T18:53:34.868Z,3.70
2018-04-19T18:58:35.845Z,3.47
2018-04-19T19:03:36.979Z,5.03
2018-04-19T19:08:37.969Z,2.77
2018-04-19T19:13:38.953Z,2.57
2018-04-19T19:18:52.385Z,2.33
2018-04-19T19:23:53.412Z,3.00
2018-04-19T19:28:55.295Z,4.33
2018-04-19T19:33:56.291Z,3.80
2018-04-19T19:38:57.373Z,2.33
2018-04-19T19:43:59.098Z,3.07
2018-04-19T19:49:00.090Z,4.13
2018-04-19T19:54:01.174Z,3.47
2018-04-19T19:59:02.910Z,2.73
2018-04-19T20:04:03.934Z,3.00
2018-04-19T20:09:04.931Z,2.87
2018-04-19T20:14:05.930Z,2.50
2018-04-19T20:19:06.914Z,3.07
2018-04-19T20:24:07.913Z,2.60
2018-04-19T20:29:08.906Z,2.40
2018-04-19T20:34:09.904Z,3.33
2018-04-19T20:39:10.893Z,4.30
2018-04-19T20:44:12.618Z,4.60
2018-04-19T20:49:13.613Z,3.93
2018-04-19T20:54:14.617Z,2.40
2018-04-19T20:59:15.602Z,3.17
2018-04-19T21:04:16.580Z,3.63
2018-04-19T21:09:17.598Z,2.77
2018-04-19T21:14:18.577Z,4.20
2018-04-19T21:19:19.577Z,2.57
2018-04-19T21:24:21.355Z,2.47
2018-04-19T21:29:22.331Z,3.07
2018-04-19T21:34:23.354Z,4.10
2018-04-19T21:39:24.321Z,3.00
2018-04-19T21:44:26.060Z,9.23
2018-04-19T21:49:27.116Z,2.70
2018-04-19T21:54:28.125Z,3.63
2018-04-19T21:59:29.882Z,3.63
2018-04-19T22:04:30.869Z,2.90
2018-04-19T22:09:31.881Z,2.60
2018-04-19T22:14:32.886Z,4.00
2018-04-19T22:19:33.890Z,3.00
2018-04-19T22:24:34.887Z,2.90
2018-04-19T22:29:36.634Z,3.20
2018-04-19T22:34:37.634Z,2.23
2018-04-19T22:39:38.684Z,2.60
2018-04-19T22:44:39.654Z,3.63
2018-04-19T22:49:40.656Z,4.53
2018-04-19T22:54:41.670Z,4.03
2018-04-19T22:59:42.670Z,8.50
2018-04-19T23:04:43.667Z,4.53
2018-04-19T23:09:45.437Z,4.37
2018-04-19T23:14:47.205Z,3.27
2018-04-19T23:19:48.934Z,4.17
2018-04-19T23:24:49.925Z,8.90
2018-04-19T23:29:50.909Z,4.33
2018-04-19T23:34:52.644Z,3.73
2018-04-19T23:39:53.658Z,3.73
2018-04-19T23:44:54.645Z,2.60
2018-04-19T23:49:55.637Z,2.67
2018-04-19T23:54:57.387Z,2.70
2018-04-19T23:59:58.364Z,3.33
